createdAt,value
2022-09-15T00:01:03.427Z,62.77
2022-09-15T00:03:29.971Z,62.69
2022-09-15T00:05:56.565Z,62.45
2022-09-15T00:08:23.990Z,62.92
2022-09-15T00:10:57.310Z,62.81
2022-09-15T00:13:25.196Z,62.67
2022-09-15T00:15:51.911Z,62.67
2022-09-15T00:18:18.491Z,61.90
2022-09-15T00:20:45.762Z,62.27
2022-09-15T00:23:14.634Z,61.71
2022-09-15T00:25:46.087Z,61.82
2022-09-15T00:28:14.530Z,61.88
2022-09-15T00:30:45.986Z,62.51
2022-09-15T00:33:13.828Z,62.66
2022-09-15T00:35:41.888Z,62.93
2022-09-15T00:38:10.045Z,62.30
2022-09-15T00:40:47.857Z,62.80
2022-09-15T00:43:16.086Z,62.62
2022-09-15T00:45:42.694Z,62.49
2022-09-15T00:48:14.017Z,62.60
2022-09-15T00:50:42.600Z,62.25
2022-09-15T00:53:12.036Z,62.67
2022-09-15T00:55:44.840Z,62.39
2022-09-15T00:58:16.189Z,62.81
2022-09-15T01:00:50.600Z,62.50
2022-09-15T01:03:17.850Z,62.62
2022-09-15T01:05:51.332Z,62.78
2022-09-15T01:08:26.637Z,63.18
2022-09-15T01:10:53.041Z,63.19
2022-09-15T01:13:19.444Z,63.20
2022-09-15T01:15:56.570Z,62.68
2022-09-15T01:18:38.242Z,62.46
2022-09-15T01:21:29.827Z,62.41
2022-09-15T01:24:33.930Z,62.56
2022-09-15T01:27:37.802Z,62.41
2022-09-15T01:30:09.307Z,62.58
2022-09-15T01:33:03.721Z,62.50
2022-09-15T01:35:56.931Z,62.17
2022-09-15T01:39:00.797Z,61.97
2022-09-15T01:41:45.699Z,61.81
2022-09-15T01:44:18.472Z,61.97
2022-09-15T01:46:52.170Z,61.52
2022-09-15T01:49:25.189Z,61.89
2022-09-15T01:51:53.384Z,61.84
2022-09-15T01:54:28.784Z,61.60
2022-09-15T01:56:56.139Z,61.47
2022-09-15T01:59:22.623Z,61.49
2022-09-15T02:01:58.713Z,61.45
2022-09-15T02:04:30.977Z,61.50
2022-09-15T02:07:11.476Z,61.33
2022-09-15T02:09:48.370Z,61.09
2022-09-15T02:12:33.864Z,60.85
2022-09-15T02:15:07.897Z,60.94
2022-09-15T02:17:38.921Z,60.92
2022-09-15T02:20:20.121Z,60.52
2022-09-15T02:22:55.747Z,60.79
2022-09-15T02:25:30.530Z,60.56
2022-09-15T02:28:02.762Z,60.36
2022-09-15T02:30:32.376Z,60.04
2022-09-15T02:33:03.034Z,60.17
2022-09-15T02:35:32.308Z,60.09
2022-09-15T02:37:59.965Z,59.85
2022-09-15T02:40:28.703Z,59.66
2022-09-15T02:42:58.246Z,59.52
2022-09-15T02:45:26.750Z,59.12
2022-09-15T02:47:53.302Z,59.10
2022-09-15T02:50:20.353Z,58.69
2022-09-15T02:52:47.294Z,58.57
2022-09-15T02:55:13.736Z,58.71
2022-09-15T02:57:40.149Z,58.28
2022-09-15T03:00:13.747Z,58.61
2022-09-15T03:02:46.366Z,58.57
2022-09-15T03:05:14.594Z,58.66
2022-09-15T03:07:41.181Z,58.33
2022-09-15T03:10:09.497Z,58.55
2022-09-15T03:12:46.933Z,58.61
2022-09-15T03:15:15.985Z,58.16
2022-09-15T03:17:43.799Z,58.58
2022-09-15T03:20:12.412Z,58.39
2022-09-15T03:22:39.415Z,58.38
2022-09-15T03:25:07.264Z,58.36
2022-09-15T03:27:35.341Z,58.48
2022-09-15T03:30:02.058Z,58.18
2022-09-15T03:32:28.560Z,58.25
2022-09-15T03:34:58.341Z,58.74
2022-09-15T03:37:25.381Z,58.72
2022-09-15T03:39:51.772Z,58.55
2022-09-15T03:42:18.292Z,58.45
2022-09-15T03:44:44.677Z,58.18
2022-09-15T03:47:11.058Z,58.11
2022-09-15T03:49:37.490Z,57.96
2022-09-15T03:52:04.366Z,58.02
2022-09-15T03:54:31.132Z,58.07
2022-09-15T03:56:57.793Z,58.08
2022-09-15T03:59:24.262Z,58.36
2022-09-15T04:01:51.599Z,58.01
2022-09-15T04:04:18.494Z,58.03
2022-09-15T04:06:44.979Z,57.71
2022-09-15T04:09:11.702Z,57.74
2022-09-15T04:11:39.364Z,57.53
2022-09-15T04:14:05.708Z,57.06
2022-09-15T04:16:32.148Z,57.25
2022-09-15T04:18:58.549Z,57.53
2022-09-15T04:21:26.625Z,57.67
2022-09-15T04:23:54.036Z,57.81
2022-09-15T04:26:31.297Z,57.55
2022-09-15T04:29:03.020Z,58.02
2022-09-15T04:31:30.937Z,57.62
2022-09-15T04:33:57.567Z,57.53
2022-09-15T04:36:27.256Z,57.88
2022-09-15T04:38:54.250Z,57.64
2022-09-15T04:41:21.283Z,57.94
2022-09-15T04:43:48.001Z,57.63
2022-09-15T04:46:15.134Z,57.59
2022-09-15T04:48:41.982Z,57.95
2022-09-15T04:51:12.570Z,57.69
2022-09-15T04:53:39.688Z,57.63
2022-09-15T04:56:11.907Z,57.34
2022-09-15T04:58:40.737Z,56.97
2022-09-15T05:01:13.422Z,56.93
2022-09-15T05:03:40.269Z,56.80
2022-09-15T05:06:08.843Z,57.39
2022-09-15T05:08:35.441Z,57.37
2022-09-15T05:11:04.231Z,57.26
2022-09-15T05:13:30.754Z,57.29
2022-09-15T05:16:04.125Z,57.21
2022-09-15T05:18:30.973Z,57.35
2022-09-15T05:21:01.943Z,57.22
2022-09-15T05:23:28.747Z,57.42
2022-09-15T05:25:59.870Z,57.68
2022-09-15T05:28:26.845Z,57.82
2022-09-15T05:30:54.726Z,57.96
2022-09-15T05:33:23.037Z,58.08
2022-09-15T05:35:54.198Z,58.16
2022-09-15T05:38:21.174Z,58.72
2022-09-15T05:40:48.137Z,58.37
2022-09-15T05:43:15.635Z,58.61
2022-09-15T05:45:42.592Z,58.91
2022-09-15T05:48:10.606Z,58.95
2022-09-15T05:50:38.562Z,59.23
2022-09-15T05:53:05.861Z,58.93
2022-09-15T05:55:37.428Z,59.18
2022-09-15T05:58:03.965Z,59.10
2022-09-15T06:00:30.352Z,59.34
2022-09-15T06:02:56.775Z,59.43
2022-09-15T06:05:23.201Z,60.08
2022-09-15T06:07:49.594Z,60.03
2022-09-15T06:10:16.025Z,59.30
2022-09-15T06:12:43.454Z,60.17
2022-09-15T06:15:10.261Z,60.61
2022-09-15T06:17:36.652Z,61.00
2022-09-15T06:20:05.911Z,61.25
2022-09-15T06:22:32.974Z,61.85
2022-09-15T06:24:59.798Z,61.91
2022-09-15T06:27:26.391Z,62.04
2022-09-15T06:29:52.785Z,62.41
2022-09-15T06:32:19.143Z,62.40
2022-09-15T06:34:46.028Z,62.48
2022-09-15T06:37:12.401Z,62.39
2022-09-15T06:39:38.753Z,62.74
2022-09-15T06:42:05.900Z,62.57
2022-09-15T06:44:34.101Z,62.50
2022-09-15T06:47:00.488Z,62.50
2022-09-15T06:49:27.041Z,62.79
2022-09-15T06:51:53.382Z,62.23
2022-09-15T06:54:19.830Z,62.85
2022-09-15T06:56:47.198Z,62.66
2022-09-15T06:59:14.907Z,62.81
2022-09-15T07:01:41.716Z,62.79
2022-09-15T07:04:09.740Z,62.96
2022-09-15T07:06:38.011Z,62.64
2022-09-15T07:09:06.398Z,62.96
2022-09-15T07:11:33.062Z,62.93
2022-09-15T07:13:59.442Z,62.66
2022-09-15T07:16:26.203Z,62.47
2022-09-15T07:18:55.413Z,62.50
2022-09-15T07:21:21.790Z,62.05
2022-09-15T07:23:48.900Z,61.59
2022-09-15T07:26:20.914Z,61.63
2022-09-15T07:29:06.833Z,61.69
2022-09-15T07:31:35.649Z,61.28
2022-09-15T07:34:02.271Z,61.36
2022-09-15T07:36:29.754Z,61.11
2022-09-15T07:38:56.415Z,61.42
2022-09-15T07:41:25.750Z,61.40
2022-09-15T07:43:54.460Z,61.14
2022-09-15T07:46:22.377Z,60.87
2022-09-15T07:48:51.408Z,60.56
2022-09-15T07:51:18.803Z,60.01
2022-09-15T07:53:47.140Z,59.93
2022-09-15T07:56:14.088Z,60.43
2022-09-15T07:58:40.506Z,60.58
2022-09-15T08:01:14.511Z,60.64
2022-09-15T08:03:42.746Z,60.37
2022-09-15T08:06:10.072Z,59.92
2022-09-15T08:08:38.762Z,59.60
2022-09-15T08:11:09.606Z,59.23
2022-09-15T08:13:36.500Z,59.35
2022-09-15T08:16:11.314Z,59.39
2022-09-15T08:18:38.539Z,59.04
2022-09-15T08:21:09.734Z,59.10
2022-09-15T08:23:36.534Z,59.24
2022-09-15T08:26:09.628Z,59.96
2022-09-15T08:28:38.322Z,60.13
2022-09-15T08:31:07.693Z,60.39
2022-09-15T08:33:34.838Z,60.30
2022-09-15T08:36:13.404Z,60.60
2022-09-15T08:38:41.125Z,60.79
2022-09-15T08:41:13.819Z,60.94
2022-09-15T08:43:46.590Z,61.01
2022-09-15T08:46:18.977Z,60.91
2022-09-15T08:49:02.599Z,60.77
2022-09-15T08:51:38.199Z,60.38
2022-09-15T08:54:12.659Z,60.01
2022-09-15T08:56:42.065Z,59.99
2022-09-15T08:59:13.878Z,59.55
2022-09-15T09:02:01.484Z,59.57
2022-09-15T09:04:48.321Z,59.24
2022-09-15T09:07:22.955Z,59.20
2022-09-15T09:10:17.399Z,58.34
2022-09-15T09:13:08.930Z,57.96
2022-09-15T09:16:13.888Z,58.13
2022-09-15T09:18:54.980Z,58.38
2022-09-15T09:21:31.042Z,58.65
2022-09-15T09:24:13.832Z,59.03
2022-09-15T09:26:40.250Z,58.94
2022-09-15T09:29:15.957Z,58.25
2022-09-15T09:31:45.443Z,57.51
2022-09-15T09:34:30.000Z,57.24
2022-09-15T09:37:08.004Z,57.35
2022-09-15T09:39:34.502Z,56.79
2022-09-15T09:42:02.289Z,54.85
2022-09-15T09:44:31.786Z,53.50
2022-09-15T09:46:59.601Z,52.66
2022-09-15T09:49:40.782Z,53.17
2022-09-15T09:52:07.179Z,52.92
2022-09-15T09:54:34.153Z,53.13
2022-09-15T09:57:12.664Z,52.32
2022-09-15T09:59:47.347Z,51.97
2022-09-15T10:02:17.069Z,50.48
2022-09-15T10:04:48.817Z,50.33
2022-09-15T10:07:18.838Z,49.87
2022-09-15T10:10:00.146Z,49.73
2022-09-15T10:12:38.583Z,49.69
2022-09-15T10:15:08.343Z,50.53
2022-09-15T10:17:41.798Z,50.82
2022-09-15T10:20:35.437Z,50.89
2022-09-15T10:23:22.961Z,50.41
2022-09-15T10:25:59.202Z,50.81
2022-09-15T10:28:28.186Z,51.29
2022-09-15T10:31:15.799Z,51.57
2022-09-15T10:33:47.670Z,50.57
2022-09-15T10:36:17.853Z,50.20
2022-09-15T10:38:48.032Z,49.99
2022-09-15T10:41:28.284Z,48.09
2022-09-15T10:44:19.958Z,46.79
2022-09-15T10:46:57.514Z,46.21
2022-09-15T10:49:55.018Z,44.76
2022-09-15T10:52:21.451Z,45.34
2022-09-15T10:55:36.766Z,45.92
2022-09-15T10:58:31.120Z,45.91
2022-09-15T11:01:29.986Z,46.08
2022-09-15T11:04:02.203Z,45.05
2022-09-15T11:06:57.904Z,45.24
2022-09-15T11:09:31.866Z,44.57
2022-09-15T11:12:14.962Z,44.69
2022-09-15T11:14:59.654Z,44.45
2022-09-15T11:17:45.974Z,44.63
2022-09-15T11:20:41.578Z,45.36
2022-09-15T11:23:29.467Z,46.17
2022-09-15T11:26:07.708Z,46.74
2022-09-15T11:29:06.705Z,47.13
2022-09-15T11:31:43.088Z,47.23
2022-09-15T11:34:19.599Z,46.46
2022-09-15T11:37:00.935Z,47.29
2022-09-15T11:39:35.103Z,48.50
2022-09-15T11:42:06.825Z,48.61
2022-09-15T11:44:42.626Z,48.08
2022-09-15T11:47:38.599Z,48.10
2022-09-15T11:50:10.963Z,47.36
2022-09-15T11:52:55.128Z,47.56
2022-09-15T11:55:47.346Z,49.08
2022-09-15T11:58:34.638Z,51.08
2022-09-15T12:01:19.340Z,52.88
2022-09-15T12:03:56.527Z,53.25
2022-09-15T12:06:46.321Z,53.96
2022-09-15T12:09:15.825Z,53.94
2022-09-15T12:11:48.502Z,53.34
2022-09-15T12:14:41.242Z,53.45
2022-09-15T12:17:13.606Z,52.59
2022-09-15T12:20:02.166Z,50.75
2022-09-15T12:22:35.637Z,50.55
2022-09-15T12:25:16.765Z,50.96
2022-09-15T12:27:43.243Z,51.24
2022-09-15T12:30:39.621Z,51.14
2022-09-15T12:33:42.918Z,50.16
2022-09-15T12:36:45.530Z,48.60
2022-09-15T12:39:25.336Z,48.35
2022-09-15T12:42:05.277Z,48.57
2022-09-15T12:44:42.881Z,49.41
2022-09-15T12:47:32.214Z,49.60
2022-09-15T12:50:05.305Z,49.41
2022-09-15T12:52:40.910Z,49.75
2022-09-15T12:55:19.191Z,50.29
2022-09-15T12:57:51.746Z,50.43
2022-09-15T13:00:20.853Z,50.18
2022-09-15T13:02:48.911Z,50.05
2022-09-15T13:05:40.916Z,50.28
2022-09-15T13:08:25.643Z,49.74
2022-09-15T13:11:06.780Z,49.12
2022-09-15T13:13:40.618Z,49.10
2022-09-15T13:16:14.208Z,49.39
2022-09-15T13:18:43.393Z,48.77
2022-09-15T13:21:15.740Z,48.74
2022-09-15T13:23:48.128Z,52.18
2022-09-15T13:26:22.566Z,56.71
2022-09-15T13:28:52.763Z,58.80
2022-09-15T13:31:38.829Z,59.20
2022-09-15T13:38:07.994Z,58.39
2022-09-15T13:40:41.974Z,57.33
2022-09-15T13:43:11.030Z,57.27
2022-09-15T13:45:43.011Z,57.67
2022-09-15T13:48:30.924Z,57.34
2022-09-15T13:51:01.754Z,57.27
2022-09-15T13:53:45.691Z,56.79
2022-09-15T13:56:21.269Z,56.52
2022-09-15T13:59:01.520Z,57.23
2022-09-15T14:01:34.840Z,56.38
2022-09-15T14:04:10.286Z,55.66
2022-09-15T14:06:39.087Z,55.97
2022-09-15T14:09:14.992Z,55.27
2022-09-15T14:11:43.840Z,54.89
2022-09-15T14:14:28.161Z,54.81
2022-09-15T14:16:56.452Z,53.95
2022-09-15T14:19:38.742Z,53.47
2022-09-15T14:22:17.674Z,53.25
2022-09-15T14:24:44.626Z,52.63
2022-09-15T14:27:12.882Z,52.66
2022-09-15T14:29:41.338Z,53.73
2022-09-15T14:32:14.299Z,53.17
2022-09-15T14:34:42.155Z,53.05
2022-09-15T14:37:32.042Z,53.16
2022-09-15T14:40:00.727Z,53.26
2022-09-15T14:42:35.961Z,52.90
2022-09-15T14:48:03.082Z,53.36
2022-09-15T14:50:33.325Z,54.18
2022-09-15T14:53:19.342Z,55.42
2022-09-15T14:56:08.441Z,56.24
2022-09-15T14:58:50.822Z,55.97
2022-09-15T15:01:30.366Z,57.76
2022-09-15T15:04:12.229Z,60.05
2022-09-15T15:06:56.997Z,60.72
2022-09-15T15:09:33.666Z,60.84
2022-09-15T15:12:22.965Z,61.20
2022-09-15T15:14:54.927Z,61.94
2022-09-15T15:17:35.406Z,61.99
2022-09-15T15:20:07.831Z,62.50
2022-09-15T15:22:35.022Z,62.75
2022-09-15T15:25:01.427Z,62.69
2022-09-15T15:27:33.608Z,61.90
2022-09-15T15:30:30.274Z,61.01
2022-09-15T15:33:19.405Z,61.20
2022-09-15T15:35:46.667Z,61.68
2022-09-15T15:38:19.390Z,62.19
2022-09-15T15:40:46.793Z,61.87
2022-09-15T15:43:28.852Z,61.56
2022-09-15T15:45:58.183Z,61.16
2022-09-15T15:48:35.387Z,61.24
2022-09-15T15:51:05.055Z,60.63
2022-09-15T15:53:31.469Z,60.71
2022-09-15T15:55:59.627Z,60.66
2022-09-15T15:58:26.569Z,60.75
2022-09-15T16:00:54.668Z,61.21
2022-09-15T16:03:22.451Z,62.92
2022-09-15T16:05:59.269Z,63.69
2022-09-15T16:08:33.147Z,64.63
2022-09-15T16:11:01.953Z,64.79
2022-09-15T16:13:29.009Z,65.62
2022-09-15T16:15:57.833Z,65.99
2022-09-15T16:18:24.765Z,65.79
2022-09-15T16:20:51.186Z,66.00
2022-09-15T16:23:20.165Z,66.15
2022-09-15T16:25:59.414Z,65.71
2022-09-15T16:28:26.300Z,66.45
2022-09-15T16:30:52.717Z,65.83
2022-09-15T16:33:19.488Z,66.01
2022-09-15T16:36:03.627Z,65.09
2022-09-15T16:38:30.059Z,64.98
2022-09-15T16:40:56.623Z,63.59
2022-09-15T16:43:23.001Z,63.77
2022-09-15T16:45:50.597Z,63.41
2022-09-15T16:48:17.284Z,62.93
2022-09-15T16:51:01.696Z,61.64
2022-09-15T16:53:32.580Z,61.79
2022-09-15T16:55:59.090Z,61.65
2022-09-15T16:58:25.512Z,60.73
2022-09-15T17:00:52.833Z,61.07
2022-09-15T17:03:23.726Z,61.14
2022-09-15T17:05:53.176Z,60.52
2022-09-15T17:08:23.943Z,59.98
2022-09-15T17:10:50.781Z,60.27
2022-09-15T17:13:19.558Z,59.90
2022-09-15T17:15:47.224Z,59.71
2022-09-15T17:18:15.406Z,59.88
2022-09-15T17:20:44.052Z,59.72
2022-09-15T17:23:25.921Z,59.21
2022-09-15T17:25:57.195Z,58.98
2022-09-15T17:28:28.928Z,59.16
2022-09-15T17:31:01.246Z,59.54
2022-09-15T17:33:29.430Z,59.77
2022-09-15T17:35:56.121Z,59.96
2022-09-15T17:38:23.091Z,59.91
2022-09-15T17:40:50.910Z,60.69
2022-09-15T17:43:19.737Z,61.32
2022-09-15T17:45:47.148Z,61.32
2022-09-15T17:48:13.751Z,61.35
2022-09-15T17:50:41.704Z,62.05
2022-09-15T17:53:26.771Z,62.73
2022-09-15T17:55:55.104Z,63.16
2022-09-15T17:58:23.673Z,63.78
2022-09-15T18:00:50.397Z,65.51
2022-09-15T18:03:16.790Z,66.58
2022-09-15T18:05:43.188Z,67.33
2022-09-15T18:08:09.612Z,67.47
2022-09-15T18:10:36.385Z,67.75
2022-09-15T18:13:04.600Z,68.11
2022-09-15T18:15:33.982Z,68.14
2022-09-15T18:18:03.943Z,68.27
2022-09-15T18:20:32.369Z,68.73
2022-09-15T18:22:59.109Z,68.84
2022-09-15T18:25:34.458Z,68.99
2022-09-15T18:28:01.998Z,69.17
2022-09-15T18:30:32.000Z,69.10
2022-09-15T18:32:58.943Z,69.22
2022-09-15T18:35:25.798Z,68.71
2022-09-15T18:37:58.796Z,68.95
2022-09-15T18:40:26.847Z,68.87
2022-09-15T18:42:54.144Z,68.49
2022-09-15T18:45:21.941Z,68.80
2022-09-15T18:47:50.241Z,69.17
2022-09-15T18:50:18.505Z,69.11
2022-09-15T18:52:44.964Z,69.50
2022-09-15T18:55:15.124Z,69.00
2022-09-15T18:57:42.320Z,69.49
2022-09-15T19:00:12.504Z,69.38
2022-09-15T19:02:39.341Z,69.78
2022-09-15T19:05:06.761Z,69.65
2022-09-15T19:07:33.549Z,69.45
2022-09-15T19:10:00.537Z,69.44
2022-09-15T19:12:27.055Z,69.33
2022-09-15T19:14:53.446Z,69.35
2022-09-15T19:17:19.850Z,69.36
2022-09-15T19:19:46.369Z,69.63
2022-09-15T19:22:13.145Z,69.74
2022-09-15T19:24:39.597Z,69.68
2022-09-15T19:27:08.234Z,69.76
2022-09-15T19:29:36.283Z,70.35
2022-09-15T19:32:05.959Z,70.13
2022-09-15T19:34:32.500Z,70.52
2022-09-15T19:36:58.879Z,70.29
2022-09-15T19:39:25.880Z,69.96
2022-09-15T19:41:52.344Z,70.35
2022-09-15T19:44:18.697Z,70.36
2022-09-15T19:46:45.453Z,70.03
2022-09-15T19:49:12.539Z,70.20
2022-09-15T19:51:39.303Z,69.92
2022-09-15T19:54:06.779Z,69.83
2022-09-15T19:56:34.007Z,70.01
2022-09-15T19:59:00.817Z,70.05
2022-09-15T20:01:29.527Z,69.67
2022-09-15T20:03:57.188Z,69.90
2022-09-15T20:06:27.618Z,69.79
2022-09-15T20:08:58.151Z,70.08
2022-09-15T20:11:27.100Z,69.90
2022-09-15T20:13:54.138Z,70.16
2022-09-15T20:16:22.285Z,70.28
2022-09-15T20:18:50.249Z,69.70
2022-09-15T20:21:45.983Z,70.27
2022-09-15T20:24:09.932Z,70.57
2022-09-15T20:26:36.654Z,70.57
2022-09-15T20:29:05.190Z,70.80
2022-09-15T20:31:34.555Z,71.05
2022-09-15T20:34:02.231Z,70.95
2022-09-15T20:36:33.239Z,71.19
2022-09-15T20:39:00.872Z,71.30
2022-09-15T20:41:28.484Z,71.26
2022-09-15T20:43:55.538Z,71.33
2022-09-15T20:46:23.146Z,71.60
2022-09-15T20:48:51.186Z,71.43
2022-09-15T20:51:20.624Z,71.18
2022-09-15T20:53:49.040Z,71.14
2022-09-15T20:56:16.636Z,71.19
2022-09-15T20:58:43.510Z,70.92
2022-09-15T21:01:14.195Z,70.82
2022-09-15T21:03:42.482Z,70.79
2022-09-15T21:06:11.343Z,70.09
2022-09-15T21:08:37.752Z,70.01
2022-09-15T21:11:06.609Z,69.50
2022-09-15T21:13:37.484Z,69.56
2022-09-15T21:16:07.546Z,69.28
2022-09-15T21:18:37.056Z,69.75
2022-09-15T21:21:05.851Z,69.17
2022-09-15T21:23:35.238Z,69.04
2022-09-15T21:26:07.980Z,69.17
2022-09-15T21:28:35.337Z,69.03
2022-09-15T21:31:07.898Z,68.36
2022-09-15T21:33:35.890Z,68.18
2022-09-15T21:36:05.002Z,68.37
2022-09-15T21:38:31.605Z,67.99
2022-09-15T21:40:58.081Z,67.77
2022-09-15T21:43:24.467Z,68.00
2022-09-15T21:45:56.080Z,68.02
2022-09-15T21:48:22.825Z,68.14
2022-09-15T21:50:52.820Z,68.01
2022-09-15T21:53:20.151Z,68.23
2022-09-15T21:55:50.199Z,68.58
2022-09-15T21:58:19.093Z,68.42
2022-09-15T22:00:46.914Z,68.45
2022-09-15T22:03:13.843Z,68.37
2022-09-15T22:05:47.072Z,68.77
2022-09-15T22:08:16.557Z,69.01
2022-09-15T22:10:43.783Z,69.32
2022-09-15T22:13:11.463Z,69.41
2022-09-15T22:15:38.286Z,69.68
2022-09-15T22:18:05.094Z,69.97
2022-09-15T22:20:31.492Z,69.74
2022-09-15T22:23:01.127Z,69.93
2022-09-15T22:25:27.598Z,70.24
2022-09-15T22:27:53.935Z,70.34
2022-09-15T22:30:20.327Z,70.13
2022-09-15T22:32:46.780Z,69.62
2022-09-15T22:35:13.204Z,69.71
2022-09-15T22:37:39.612Z,69.48
2022-09-15T22:40:06.494Z,69.43
2022-09-15T22:42:32.945Z,69.79
2022-09-15T22:44:59.460Z,69.90
2022-09-15T22:47:25.875Z,69.60
2022-09-15T22:49:52.337Z,69.46
2022-09-15T22:52:19.565Z,69.52
2022-09-15T22:54:46.023Z,69.44
2022-09-15T22:57:12.460Z,69.67
2022-09-15T22:59:38.857Z,69.69
2022-09-15T23:02:05.296Z,69.73
2022-09-15T23:04:31.751Z,70.06
2022-09-15T23:06:58.178Z,69.83
2022-09-15T23:09:24.665Z,70.06
2022-09-15T23:11:51.109Z,69.96
2022-09-15T23:14:17.942Z,70.00
2022-09-15T23:16:44.803Z,70.00
2022-09-15T23:19:13.252Z,70.10
2022-09-15T23:21:39.729Z,69.74
2022-09-15T23:24:06.379Z,69.29
2022-09-15T23:26:32.874Z,69.22
2022-09-15T23:28:59.257Z,68.96
2022-09-15T23:31:25.758Z,69.26
2022-09-15T23:33:52.384Z,69.58
2022-09-15T23:36:21.812Z,69.92
2022-09-15T23:38:49.177Z,70.30
2022-09-15T23:41:16.704Z,70.42
2022-09-15T23:43:43.822Z,70.51
2022-09-15T23:46:10.571Z,70.56
2022-09-15T23:48:37.715Z,70.81
2022-09-15T23:51:05.012Z,71.01
2022-09-15T23:53:31.534Z,70.59
2022-09-15T23:55:57.923Z,70.60
2022-09-15T23:58:24.698Z,70.44
